Schippersgracht — PCGR — position and weather

sailwx.info

Track history (hours):
 
Tides and Currents Weather Stations Pressure Air Temp Water Temp Dewpoint Dewpoint Depression Visibility Wind Speed Wind Dir Waves Ship Positions

Schippersgracht

Last reported at 2018-Jun-20 01:48 UTC. Time now 2018-Jun-20 20:40 UTC.
Position N 49°43' W 006°23'.

Length 168 m; beam 25 m.

Type: Cargo ship. MMSI: 245578000.

Date/timePositionNaut miles runAvg speedWind from/ knotsBaromVisibWave heightAir tempDewpointWater temp
2018-Jun-20 01:48N 49°43' W 006°23'5716.5
2018-Jun-19 22:21N 49°49' W 004°56'516.0
2018-Jun-19 22:00N 49°50' W 004°47'916.3
2018-Jun-19 21:27N 49°51' W 004°33'816.6
2018-Jun-19 20:57N 49°52' W 004°21'716.7
2018-Jun-19 20:30N 49°53' W 004°09'917.0
2018-Jun-19 20:00N 49°54' W 003°56'917.4
2018-Jun-19 19:30N 49°55' W 003°43'917.8
2018-Jun-19 19:00N 49°55' W 003°29'918.3
2018-Jun-19 18:30N 49°57' W 003°15'918.6
2018-Jun-19 18:00N 49°58' W 003°00'816.0
2018-Jun-19 17:31N 49°59' W 002°48'918.9
2018-Jun-19 17:00N 50°02' W 002°34'1318.5
2018-Jun-19 16:19N 50°06' W 002°15'617.9
2018-Jun-19 16:00N 50°07' W 002°07'5015.4
2018-Jun-19 12:45N 50°22' W 000°51'414.1
2018-Jun-19 12:30N 50°23' W 000°46'714.4
2018-Jun-19 12:00N 50°25' W 000°35'714.8
2018-Jun-19 11:30N 50°27' W 000°24'1015.8
2018-Jun-19 10:54N 50°29' W 000°10'816.5
2018-Jun-19 10:26N 50°32' E 000°02'816.9
2018-Jun-19 10:00N 50°34' E 000°13'917.6
2018-Jun-19 09:31N 50°36' E 000°26'918.0
2018-Jun-19 09:00N 50°41' E 000°38'918.0
2018-Jun-19 08:31N 50°46' E 000°50'917.8
2018-Jun-19 08:00N 50°51' E 001°01'917.2
2018-Jun-19 07:31N 50°57' E 001°11'816.6
2018-Jun-19 07:01N 51°02' E 001°22'815.7
2018-Jun-19 06:31N 51°07' E 001°32'714.6
2018-Jun-19 06:01N 51°11' E 001°41'714.3
2018-Jun-19 05:31N 51°17' E 001°49'714.6
2018-Jun-19 05:00N 51°23' E 001°54'715.0
2018-Jun-19 04:30N 51°29' E 002°00'815.5
2018-Jun-19 04:01N 51°35' E 002°09'815.8
2018-Jun-19 03:30N 51°41' E 002°17'2216.9
2018-Jun-19 02:12N 51°58' E 002°41'617.7
2018-Jun-19 01:52N 52°02' E 002°47'717.9
2018-Jun-19 01:30N 52°07' E 002°54'918.1
2018-Jun-19 01:00N 52°14' E 003°03'918.1
2018-Jun-19 00:30N 52°22' E 003°12'918.1
2018-Jun-19 00:00N 52°29' E 003°21'917.8
2018-Jun-18 23:29N 52°36' E 003°30'3416.4
2018-Jun-18 21:26N 53°02' E 004°06'715.5
2018-Jun-18 21:00N 53°06' E 004°15'1514.3
2018-Jun-18 19:56N 53°19' E 004°29'334 9.0
2018-Jun-17 06:39N 57°41' E 010°36'14 7.5
2018-Jun-17 04:45N 57°40' E 011°02'314.0
2018-Jun-17 04:30N 57°38' E 011°07'713.7
2018-Jun-17 04:00N 57°33' E 011°17'612.9
2018-Jun-17 03:30N 57°29' E 011°26'713.0
2018-Jun-17 03:00N 57°23' E 011°30'713.3
2018-Jun-17 02:30N 57°16' E 011°35'11313.3
2018-Jun-16 17:59N 55°25' E 010°59'816.6
2018-Jun-16 17:30N 55°17' E 011°04'714.3
2018-Jun-16 17:00N 55°10' E 011°02'815.9
2018-Jun-16 16:30N 55°02' E 010°60'611.6
2018-Jun-16 16:00N 54°57' E 010°55'612.2
2018-Jun-16 15:30N 54°52' E 010°50'612.7
2018-Jun-16 15:00N 54°46' E 010°48'713.2
2018-Jun-16 14:30N 54°39' E 010°51'815.9
2018-Jun-16 14:00N 54°37' E 011°04'816.6
2018-Jun-16 13:30N 54°34' E 011°18'917.0
2018-Jun-16 13:00N 54°30' E 011°31'917.1
2018-Jun-16 12:30N 54°27' E 011°45'816.6
2018-Jun-16 12:00N 54°26' E 011°59'914.7
2018-Jun-16 11:25N 54°29' E 012°13'717.1
2018-Jun-16 11:00N 54°36' E 012°17'1116.8
2018-Jun-16 10:21N 54°43' E 012°32'616.8
2018-Jun-16 09:58N 54°46' E 012°42'817.4
2018-Jun-16 09:30N 54°49' E 012°55'917.7
2018-Jun-16 09:00N 54°53' E 013°09'1117.9
2018-Jun-16 08:25N 54°56' E 013°26'817.5
2018-Jun-16 07:57N 54°59' E 013°39'817.3
2018-Jun-16 07:30N 55°02' E 013°52'817.1
2018-Jun-16 07:00N 55°05' E 014°05'917.4
2018-Jun-16 06:30N 55°12' E 014°15'816.3
2018-Jun-16 06:00N 55°19' E 014°24'816.5
2018-Jun-16 05:30N 55°25' E 014°33'816.5
2018-Jun-16 05:00N 55°30' E 014°45'916.6
2018-Jun-16 04:28N 55°34' E 014°58'3517.1
2018-Jun-16 02:24N 55°53' E 015°52'12516.1
2018-Jun-15 18:38N 57°39' E 017°53'216.9
2018-Jun-15 18:30N 57°41' E 017°55'816.7
2018-Jun-15 18:00N 57°48' E 018°03'816.8
2018-Jun-15 17:30N 57°55' E 018°11'817.0
2018-Jun-15 17:00N 58°02' E 018°19'917.2
2018-Jun-15 16:30N 58°10' E 018°28'917.4
2018-Jun-15 16:00N 58°17' E 018°37'917.3
2018-Jun-15 15:30N 58°24' E 018°46'917.0
2018-Jun-15 15:00N 58°31' E 018°55'3616.7
2018-Jun-15 12:49N 59°03' E 019°31'516.4
2018-Jun-15 12:30N 59°07' E 019°36'816.5
2018-Jun-15 12:00N 59°14' E 019°46'1116.4
2018-Jun-15 11:18N 59°23' E 019°58'616.6
2018-Jun-15 10:57N 59°28' E 020°04'1014.9
2018-Jun-15 10:17N 59°37' E 019°57'617.0
2018-Jun-15 09:58N 59°42' E 019°50'817.1
2018-Jun-15 09:30N 59°48' E 019°40'917.2
2018-Jun-15 09:00N 59°54' E 019°29'917.1
2018-Jun-15 08:30N 60°01' E 019°18'917.1
2018-Jun-15 08:00N 60°07' E 019°06'815.6
2018-Jun-15 07:30N 60°14' E 019°01'816.7
2018-Jun-15 07:00N 60°23' E 019°00'1117.0
2018-Jun-15 06:23N 60°33' E 018°59'  
2018-Jun-12 21:42N 61°16' E 020°57'418.0
2018-Jun-12 21:29N 61°12' E 021°00'714.5
2018-Jun-12 20:58N 61°07' E 021°12'510.7
2018-Jun-12 20:30N 61°06' E 021°22'2 4.1
2018-Jun-12 19:59N 61°08' E 021°26'0 0.0
2018-Jun-12 19:26N 61°08' E 021°26'0 0.0
2018-Jun-12 18:57N 61°08' E 021°26'0 0.0
2018-Jun-12 18:26N 61°08' E 021°26'0 0.0
2018-Jun-12 17:58N 61°08' E 021°26'0 0.0
2018-Jun-12 17:28N 61°08' E 021°26'0 0.0
2018-Jun-12 17:00N 61°08' E 021°26'0 0.0
2018-Jun-12 16:29N 61°08' E 021°26'0 0.0
2018-Jun-12 15:58N 61°08' E 021°26'0 0.0
2018-Jun-12 15:30N 61°08' E 021°26'0 0.0
2018-Jun-12 14:59N 61°08' E 021°26'0 0.0
2018-Jun-12 14:28N 61°08' E 021°26'0 0.0
2018-Jun-12 14:00N 61°08' E 021°26'0 0.0
2018-Jun-12 13:29N 61°08' E 021°26'0 0.0
2018-Jun-12 12:59N 61°08' E 021°26'0 0.0
2018-Jun-12 12:28N 61°08' E 021°26'0 0.0
2018-Jun-12 11:59N 61°08' E 021°26'0 0.0
2018-Jun-12 11:28N 61°08' E 021°26'0 0.0
2018-Jun-12 10:58N 61°08' E 021°26'0 0.0
2018-Jun-12 10:29N 61°08' E 021°26'0 0.0
2018-Jun-12 09:54N 61°08' E 021°26'0 0.0
2018-Jun-12 09:29N 61°08' E 021°26'0 0.0
2018-Jun-12 08:58N 61°08' E 021°26'0 0.0
2018-Jun-12 08:28N 61°08' E 021°26'0 0.0
2018-Jun-12 07:58N 61°08' E 021°26'0 0.0
2018-Jun-12 07:30N 61°08' E 021°26'0 0.0
2018-Jun-12 07:00N 61°08' E 021°26'0 0.0
2018-Jun-12 06:20N 61°08' E 021°26'0 0.0
2018-Jun-12 05:56N 61°08' E 021°26'0 0.0
2018-Jun-12 05:30N 61°08' E 021°26'0 0.0
2018-Jun-12 04:59N 61°08' E 021°26'0 0.0
2018-Jun-12 04:29N 61°08' E 021°26'0 0.0
2018-Jun-12 03:58N 61°08' E 021°26'0 0.0
2018-Jun-12 03:27N 61°08' E 021°26'0 0.0
2018-Jun-12 02:58N 61°08' E 021°26'0 0.0
2018-Jun-12 02:25N 61°08' E 021°26'0 0.0
2018-Jun-12 01:52N 61°08' E 021°26'0 0.0
2018-Jun-12 01:26N 61°08' E 021°26'0 0.0
2018-Jun-12 00:50N 61°08' E 021°26'0 0.0
2018-Jun-12 00:22N 61°08' E 021°26'0 0.0
2018-Jun-11 23:59N 61°08' E 021°26'0 0.0
2018-Jun-11 23:30N 61°08' E 021°26'0 0.0
2018-Jun-11 22:55N 61°08' E 021°26'0 0.0
2018-Jun-11 22:28N 61°08' E 021°26'0 0.0
2018-Jun-11 21:56N 61°08' E 021°26'0 0.0
2018-Jun-11 21:27N 61°08' E 021°26'0 0.0
2018-Jun-11 21:00N 61°08' E 021°26'0 0.0
2018-Jun-11 20:28N 61°08' E 021°26'0 0.0
2018-Jun-11 19:55N 61°08' E 021°26'0 0.0
2018-Jun-11 19:28N 61°08' E 021°26'0 0.0
2018-Jun-11 18:49N 61°08' E 021°26'0 0.0
2018-Jun-11 18:23N 61°08' E 021°26'0 0.0
2018-Jun-11 17:54N 61°08' E 021°26'0 0.0
2018-Jun-11 17:28N 61°08' E 021°26'0 0.0
2018-Jun-11 16:50N 61°08' E 021°26'0 0.0
2018-Jun-11 16:23N 61°08' E 021°26'0 0.0
2018-Jun-11 15:59N 61°08' E 021°26'0 0.0
2018-Jun-11 15:20N 61°08' E 021°26'0 0.0
2018-Jun-11 15:00N 61°08' E 021°26'0 0.0
2018-Jun-11 14:28N 61°08' E 021°26'0 0.0
2018-Jun-11 13:57N 61°08' E 021°26'0 0.0
2018-Jun-11 13:25N 61°08' E 021°26'0 0.0
2018-Jun-11 13:00N 61°08' E 021°26'0 0.0
2018-Jun-11 12:30N 61°08' E 021°26'0 0.0
2018-Jun-11 11:58N 61°08' E 021°26'0 0.0
2018-Jun-11 11:28N 61°08' E 021°26'0 0.0
2018-Jun-11 10:57N 61°08' E 021°26'0 0.0
2018-Jun-11 10:27N 61°08' E 021°26'0 0.0
2018-Jun-11 09:58N 61°08' E 021°26'0 0.0
2018-Jun-11 09:28N 61°08' E 021°26'0 0.0
2018-Jun-11 08:58N 61°08' E 021°26'0 0.0
2018-Jun-11 08:24N 61°08' E 021°26'0 0.0
2018-Jun-11 07:57N 61°08' E 021°26'0 0.0
2018-Jun-11 07:29N 61°08' E 021°26'0 0.0
2018-Jun-11 06:57N 61°08' E 021°26'0 0.0
2018-Jun-11 06:28N 61°08' E 021°26'0 0.0
2018-Jun-11 06:00N 61°08' E 021°26'0 0.0
2018-Jun-11 05:29N 61°08' E 021°26'0 0.0
2018-Jun-11 04:57N 61°08' E 021°26'0 0.0
2018-Jun-11 04:22N 61°08' E 021°26'0 0.0
2018-Jun-11 04:00N 61°08' E 021°26'0 0.0
2018-Jun-11 03:29N 61°08' E 021°26'0 0.0
2018-Jun-11 02:52N 61°08' E 021°26'0 0.0
2018-Jun-11 02:27N 61°08' E 021°26'0 0.0
2018-Jun-11 01:51N 61°08' E 021°26'0 0.0
2018-Jun-11 01:21N 61°08' E 021°26'0 0.0
2018-Jun-11 01:00N 61°08' E 021°26'0 0.0
2018-Jun-11 00:19N 61°08' E 021°26'0 0.0
2018-Jun-10 23:51N 61°08' E 021°26'0 0.0
2018-Jun-10 23:30N 61°08' E 021°26'0 0.0
2018-Jun-10 22:58N 61°08' E 021°26'0 0.0
2018-Jun-10 22:27N 61°08' E 021°26'0 0.0
2018-Jun-10 21:57N 61°08' E 021°26'0 0.0
2018-Jun-10 21:22N 61°08' E 021°26'0 0.0
2018-Jun-10 20:55N 61°08' E 021°26'0 0.0
2018-Jun-10 20:20N 61°08' E 021°26'0 0.0
2018-Jun-10 19:58N 61°08' E 021°26'0 0.0
2018-Jun-10 19:29N 61°08' E 021°26'0 0.0
2018-Jun-10 18:51N 61°08' E 021°26'0 0.0
2018-Jun-10 18:28N 61°08' E 021°26'0 0.0
2018-Jun-10 18:00N 61°08' E 021°26'0 0.0
2018-Jun-10 17:22N 61°08' E 021°26'0 0.0
2018-Jun-10 16:58N 61°08' E 021°26'0 0.0
2018-Jun-10 16:26N 61°08' E 021°26'0 0.0
2018-Jun-10 15:53N 61°08' E 021°26'0 0.0
2018-Jun-10 15:25N 61°08' E 021°26'0 0.0
2018-Jun-10 14:59N 61°08' E 021°26'0 0.0
2018-Jun-10 13:56N 61°08' E 021°26'0 0.0
2018-Jun-10 13:29N 61°08' E 021°26'0 0.0
2018-Jun-10 12:55N 61°08' E 021°26'0 0.0
2018-Jun-10 12:30N 61°08' E 021°26'0 0.0
2018-Jun-10 11:59N 61°08' E 021°26'0 0.0
2018-Jun-10 11:28N 61°08' E 021°26'0 0.0
2018-Jun-10 11:00N 61°08' E 021°26'0 0.0
2018-Jun-10 10:30N 61°08' E 021°26'0 0.0
2018-Jun-10 09:54N 61°08' E 021°26'0 0.0
2018-Jun-10 09:24N 61°08' E 021°26'0 0.0
2018-Jun-10 09:00N 61°08' E 021°26'0 0.0
2018-Jun-10 08:20N 61°08' E 021°26'0 0.0
2018-Jun-10 07:57N 61°08' E 021°26'0 0.0
2018-Jun-10 07:24N 61°08' E 021°26'0 0.0
2018-Jun-10 07:00N 61°08' E 021°26'0 0.0
2018-Jun-10 06:27N 61°08' E 021°26'0 0.0
2018-Jun-10 06:00N 61°08' E 021°26'0 0.0
2018-Jun-10 05:29N 61°08' E 021°26'0 0.0
2018-Jun-10 05:00N 61°08' E 021°26'0 0.0
2018-Jun-10 04:28N 61°08' E 021°26'0 0.0
2018-Jun-10 03:59N 61°08' E 021°26'0 0.0
2018-Jun-10 03:28N 61°08' E 021°26'0 0.0
2018-Jun-10 02:57N 61°08' E 021°26'0 0.0
2018-Jun-10 02:29N 61°08' E 021°26'0 0.0
2018-Jun-10 01:52N 61°08' E 021°26'  
Track history (hours):
 
Tides and Currents Weather Stations Pressure Air Temp Water Temp Dewpoint Dewpoint Depression Visibility Wind Speed Wind Dir Waves Ship Positions

Schippersgracht

Last reported at 2018-Jun-20 01:48 UTC. Time now 2018-Jun-20 20:40 UTC.
Position N 49°43' W 006°23'.

Length 168 m; beam 25 m.

Type: Cargo ship. MMSI: 245578000.

Date/timePositionNaut miles runAvg speedWind from/ knotsBaromVisibWave heightAir tempDewpointWater temp
2018-Jun-20 01:48N 49°43' W 006°23'5716.5
2018-Jun-19 22:21N 49°49' W 004°56'516.0
2018-Jun-19 22:00N 49°50' W 004°47'916.3
2018-Jun-19 21:27N 49°51' W 004°33'816.6
2018-Jun-19 20:57N 49°52' W 004°21'716.7
2018-Jun-19 20:30N 49°53' W 004°09'917.0
2018-Jun-19 20:00N 49°54' W 003°56'917.4
2018-Jun-19 19:30N 49°55' W 003°43'917.8
2018-Jun-19 19:00N 49°55' W 003°29'918.3
2018-Jun-19 18:30N 49°57' W 003°15'918.6
2018-Jun-19 18:00N 49°58' W 003°00'816.0
2018-Jun-19 17:31N 49°59' W 002°48'918.9
2018-Jun-19 17:00N 50°02' W 002°34'1318.5
2018-Jun-19 16:19N 50°06' W 002°15'617.9
2018-Jun-19 16:00N 50°07' W 002°07'5015.4
2018-Jun-19 12:45N 50°22' W 000°51'414.1
2018-Jun-19 12:30N 50°23' W 000°46'714.4
2018-Jun-19 12:00N 50°25' W 000°35'714.8
2018-Jun-19 11:30N 50°27' W 000°24'1015.8
2018-Jun-19 10:54N 50°29' W 000°10'816.5
2018-Jun-19 10:26N 50°32' E 000°02'816.9
2018-Jun-19 10:00N 50°34' E 000°13'917.6
2018-Jun-19 09:31N 50°36' E 000°26'918.0
2018-Jun-19 09:00N 50°41' E 000°38'918.0
2018-Jun-19 08:31N 50°46' E 000°50'917.8
2018-Jun-19 08:00N 50°51' E 001°01'917.2
2018-Jun-19 07:31N 50°57' E 001°11'816.6
2018-Jun-19 07:01N 51°02' E 001°22'815.7
2018-Jun-19 06:31N 51°07' E 001°32'714.6
2018-Jun-19 06:01N 51°11' E 001°41'714.3
2018-Jun-19 05:31N 51°17' E 001°49'714.6
2018-Jun-19 05:00N 51°23' E 001°54'715.0
2018-Jun-19 04:30N 51°29' E 002°00'815.5
2018-Jun-19 04:01N 51°35' E 002°09'815.8
2018-Jun-19 03:30N 51°41' E 002°17'2216.9
2018-Jun-19 02:12N 51°58' E 002°41'617.7
2018-Jun-19 01:52N 52°02' E 002°47'717.9
2018-Jun-19 01:30N 52°07' E 002°54'918.1
2018-Jun-19 01:00N 52°14' E 003°03'918.1
2018-Jun-19 00:30N 52°22' E 003°12'918.1
2018-Jun-19 00:00N 52°29' E 003°21'917.8
2018-Jun-18 23:29N 52°36' E 003°30'3416.4
2018-Jun-18 21:26N 53°02' E 004°06'715.5
2018-Jun-18 21:00N 53°06' E 004°15'1514.3
2018-Jun-18 19:56N 53°19' E 004°29'334 9.0
2018-Jun-17 06:39N 57°41' E 010°36'14 7.5
2018-Jun-17 04:45N 57°40' E 011°02'314.0
2018-Jun-17 04:30N 57°38' E 011°07'713.7
2018-Jun-17 04:00N 57°33' E 011°17'612.9
2018-Jun-17 03:30N 57°29' E 011°26'713.0
2018-Jun-17 03:00N 57°23' E 011°30'713.3
2018-Jun-17 02:30N 57°16' E 011°35'11313.3
2018-Jun-16 17:59N 55°25' E 010°59'816.6
2018-Jun-16 17:30N 55°17' E 011°04'714.3
2018-Jun-16 17:00N 55°10' E 011°02'815.9
2018-Jun-16 16:30N 55°02' E 010°60'611.6
2018-Jun-16 16:00N 54°57' E 010°55'612.2
2018-Jun-16 15:30N 54°52' E 010°50'612.7
2018-Jun-16 15:00N 54°46' E 010°48'713.2
2018-Jun-16 14:30N 54°39' E 010°51'815.9
2018-Jun-16 14:00N 54°37' E 011°04'816.6
2018-Jun-16 13:30N 54°34' E 011°18'917.0
2018-Jun-16 13:00N 54°30' E 011°31'917.1
2018-Jun-16 12:30N 54°27' E 011°45'816.6
2018-Jun-16 12:00N 54°26' E 011°59'914.7
2018-Jun-16 11:25N 54°29' E 012°13'717.1
2018-Jun-16 11:00N 54°36' E 012°17'1116.8
2018-Jun-16 10:21N 54°43' E 012°32'616.8
2018-Jun-16 09:58N 54°46' E 012°42'817.4
2018-Jun-16 09:30N 54°49' E 012°55'917.7
2018-Jun-16 09:00N 54°53' E 013°09'1117.9
2018-Jun-16 08:25N 54°56' E 013°26'817.5
2018-Jun-16 07:57N 54°59' E 013°39'817.3
2018-Jun-16 07:30N 55°02' E 013°52'817.1
2018-Jun-16 07:00N 55°05' E 014°05'917.4
2018-Jun-16 06:30N 55°12' E 014°15'816.3
2018-Jun-16 06:00N 55°19' E 014°24'816.5
2018-Jun-16 05:30N 55°25' E 014°33'816.5
2018-Jun-16 05:00N 55°30' E 014°45'916.6
2018-Jun-16 04:28N 55°34' E 014°58'3517.1
2018-Jun-16 02:24N 55°53' E 015°52'12516.1
2018-Jun-15 18:38N 57°39' E 017°53'216.9
2018-Jun-15 18:30N 57°41' E 017°55'816.7
2018-Jun-15 18:00N 57°48' E 018°03'816.8
2018-Jun-15 17:30N 57°55' E 018°11'817.0
2018-Jun-15 17:00N 58°02' E 018°19'917.2
2018-Jun-15 16:30N 58°10' E 018°28'917.4
2018-Jun-15 16:00N 58°17' E 018°37'917.3
2018-Jun-15 15:30N 58°24' E 018°46'917.0
2018-Jun-15 15:00N 58°31' E 018°55'3616.7
2018-Jun-15 12:49N 59°03' E 019°31'516.4
2018-Jun-15 12:30N 59°07' E 019°36'816.5
2018-Jun-15 12:00N 59°14' E 019°46'1116.4
2018-Jun-15 11:18N 59°23' E 019°58'616.6
2018-Jun-15 10:57N 59°28' E 020°04'1014.9
2018-Jun-15 10:17N 59°37' E 019°57'617.0
2018-Jun-15 09:58N 59°42' E 019°50'817.1
2018-Jun-15 09:30N 59°48' E 019°40'917.2
2018-Jun-15 09:00N 59°54' E 019°29'917.1
2018-Jun-15 08:30N 60°01' E 019°18'917.1
2018-Jun-15 08:00N 60°07' E 019°06'815.6
2018-Jun-15 07:30N 60°14' E 019°01'816.7
2018-Jun-15 07:00N 60°23' E 019°00'1117.0
2018-Jun-15 06:23N 60°33' E 018°59'  
2018-Jun-12 21:42N 61°16' E 020°57'418.0
2018-Jun-12 21:29N 61°12' E 021°00'714.5
2018-Jun-12 20:58N 61°07' E 021°12'510.7
2018-Jun-12 20:30N 61°06' E 021°22'2 4.1
2018-Jun-12 19:59N 61°08' E 021°26'0 0.0
2018-Jun-12 19:26N 61°08' E 021°26'0 0.0
2018-Jun-12 18:57N 61°08' E 021°26'0 0.0
2018-Jun-12 18:26N 61°08' E 021°26'0 0.0
2018-Jun-12 17:58N 61°08' E 021°26'0 0.0
2018-Jun-12 17:28N 61°08' E 021°26'0 0.0
2018-Jun-12 17:00N 61°08' E 021°26'0 0.0
2018-Jun-12 16:29N 61°08' E 021°26'0 0.0
2018-Jun-12 15:58N 61°08' E 021°26'0 0.0
2018-Jun-12 15:30N 61°08' E 021°26'0 0.0
2018-Jun-12 14:59N 61°08' E 021°26'0 0.0
2018-Jun-12 14:28N 61°08' E 021°26'0 0.0
2018-Jun-12 14:00N 61°08' E 021°26'0 0.0
2018-Jun-12 13:29N 61°08' E 021°26'0 0.0
2018-Jun-12 12:59N 61°08' E 021°26'0 0.0
2018-Jun-12 12:28N 61°08' E 021°26'0 0.0
2018-Jun-12 11:59N 61°08' E 021°26'0 0.0
2018-Jun-12 11:28N 61°08' E 021°26'0 0.0
2018-Jun-12 10:58N 61°08' E 021°26'0 0.0
2018-Jun-12 10:29N 61°08' E 021°26'0 0.0
2018-Jun-12 09:54N 61°08' E 021°26'0 0.0
2018-Jun-12 09:29N 61°08' E 021°26'0 0.0
2018-Jun-12 08:58N 61°08' E 021°26'0 0.0
2018-Jun-12 08:28N 61°08' E 021°26'0 0.0
2018-Jun-12 07:58N 61°08' E 021°26'0 0.0
2018-Jun-12 07:30N 61°08' E 021°26'0 0.0
2018-Jun-12 07:00N 61°08' E 021°26'0 0.0
2018-Jun-12 06:20N 61°08' E 021°26'0 0.0
2018-Jun-12 05:56N 61°08' E 021°26'0 0.0
2018-Jun-12 05:30N 61°08' E 021°26'0 0.0
2018-Jun-12 04:59N 61°08' E 021°26'0 0.0
2018-Jun-12 04:29N 61°08' E 021°26'0 0.0
2018-Jun-12 03:58N 61°08' E 021°26'0 0.0
2018-Jun-12 03:27N 61°08' E 021°26'0 0.0
2018-Jun-12 02:58N 61°08' E 021°26'0 0.0
2018-Jun-12 02:25N 61°08' E 021°26'0 0.0
2018-Jun-12 01:52N 61°08' E 021°26'0 0.0
2018-Jun-12 01:26N 61°08' E 021°26'0 0.0
2018-Jun-12 00:50N 61°08' E 021°26'0 0.0
2018-Jun-12 00:22N 61°08' E 021°26'0 0.0
2018-Jun-11 23:59N 61°08' E 021°26'0 0.0
2018-Jun-11 23:30N 61°08' E 021°26'0 0.0
2018-Jun-11 22:55N 61°08' E 021°26'0 0.0
2018-Jun-11 22:28N 61°08' E 021°26'0 0.0
2018-Jun-11 21:56N 61°08' E 021°26'0 0.0
2018-Jun-11 21:27N 61°08' E 021°26'0 0.0
2018-Jun-11 21:00N 61°08' E 021°26'0 0.0
2018-Jun-11 20:28N 61°08' E 021°26'0 0.0
2018-Jun-11 19:55N 61°08' E 021°26'0 0.0
2018-Jun-11 19:28N 61°08' E 021°26'0 0.0
2018-Jun-11 18:49N 61°08' E 021°26'0 0.0
2018-Jun-11 18:23N 61°08' E 021°26'0 0.0
2018-Jun-11 17:54N 61°08' E 021°26'0 0.0
2018-Jun-11 17:28N 61°08' E 021°26'0 0.0
2018-Jun-11 16:50N 61°08' E 021°26'0 0.0
2018-Jun-11 16:23N 61°08' E 021°26'0 0.0
2018-Jun-11 15:59N 61°08' E 021°26'0 0.0
2018-Jun-11 15:20N 61°08' E 021°26'0 0.0
2018-Jun-11 15:00N 61°08' E 021°26'0 0.0
2018-Jun-11 14:28N 61°08' E 021°26'0 0.0
2018-Jun-11 13:57N 61°08' E 021°26'0 0.0
2018-Jun-11 13:25N 61°08' E 021°26'0 0.0
2018-Jun-11 13:00N 61°08' E 021°26'0 0.0
2018-Jun-11 12:30N 61°08' E 021°26'0 0.0
2018-Jun-11 11:58N 61°08' E 021°26'0 0.0
2018-Jun-11 11:28N 61°08' E 021°26'0 0.0
2018-Jun-11 10:57N 61°08' E 021°26'0 0.0
2018-Jun-11 10:27N 61°08' E 021°26'0 0.0
2018-Jun-11 09:58N 61°08' E 021°26'0 0.0
2018-Jun-11 09:28N 61°08' E 021°26'0 0.0
2018-Jun-11 08:58N 61°08' E 021°26'0 0.0
2018-Jun-11 08:24N 61°08' E 021°26'0 0.0
2018-Jun-11 07:57N 61°08' E 021°26'0 0.0
2018-Jun-11 07:29N 61°08' E 021°26'0 0.0
2018-Jun-11 06:57N 61°08' E 021°26'0 0.0
2018-Jun-11 06:28N 61°08' E 021°26'0 0.0
2018-Jun-11 06:00N 61°08' E 021°26'0 0.0
2018-Jun-11 05:29N 61°08' E 021°26'0 0.0
2018-Jun-11 04:57N 61°08' E 021°26'0 0.0
2018-Jun-11 04:22N 61°08' E 021°26'0 0.0
2018-Jun-11 04:00N 61°08' E 021°26'0 0.0
2018-Jun-11 03:29N 61°08' E 021°26'0 0.0
2018-Jun-11 02:52N 61°08' E 021°26'0 0.0
2018-Jun-11 02:27N 61°08' E 021°26'0 0.0
2018-Jun-11 01:51N 61°08' E 021°26'0 0.0
2018-Jun-11 01:21N 61°08' E 021°26'0 0.0
2018-Jun-11 01:00N 61°08' E 021°26'0 0.0
2018-Jun-11 00:19N 61°08' E 021°26'0 0.0
2018-Jun-10 23:51N 61°08' E 021°26'0 0.0
2018-Jun-10 23:30N 61°08' E 021°26'0 0.0
2018-Jun-10 22:58N 61°08' E 021°26'0 0.0
2018-Jun-10 22:27N 61°08' E 021°26'0 0.0
2018-Jun-10 21:57N 61°08' E 021°26'0 0.0
2018-Jun-10 21:22N 61°08' E 021°26'0 0.0
2018-Jun-10 20:55N 61°08' E 021°26'0 0.0
2018-Jun-10 20:20N 61°08' E 021°26'0 0.0
2018-Jun-10 19:58N 61°08' E 021°26'0 0.0
2018-Jun-10 19:29N 61°08' E 021°26'0 0.0
2018-Jun-10 18:51N 61°08' E 021°26'0 0.0
2018-Jun-10 18:28N 61°08' E 021°26'0 0.0
2018-Jun-10 18:00N 61°08' E 021°26'0 0.0
2018-Jun-10 17:22N 61°08' E 021°26'0 0.0
2018-Jun-10 16:58N 61°08' E 021°26'0 0.0
2018-Jun-10 16:26N 61°08' E 021°26'0 0.0
2018-Jun-10 15:53N 61°08' E 021°26'0 0.0
2018-Jun-10 15:25N 61°08' E 021°26'0 0.0
2018-Jun-10 14:59N 61°08' E 021°26'0 0.0
2018-Jun-10 13:56N 61°08' E 021°26'0 0.0
2018-Jun-10 13:29N 61°08' E 021°26'0 0.0
2018-Jun-10 12:55N 61°08' E 021°26'0 0.0
2018-Jun-10 12:30N 61°08' E 021°26'0 0.0
2018-Jun-10 11:59N 61°08' E 021°26'0 0.0
2018-Jun-10 11:28N 61°08' E 021°26'0 0.0
2018-Jun-10 11:00N 61°08' E 021°26'0 0.0
2018-Jun-10 10:30N 61°08' E 021°26'0 0.0
2018-Jun-10 09:54N 61°08' E 021°26'0 0.0
2018-Jun-10 09:24N 61°08' E 021°26'0 0.0
2018-Jun-10 09:00N 61°08' E 021°26'0 0.0
2018-Jun-10 08:20N 61°08' E 021°26'0 0.0
2018-Jun-10 07:57N 61°08' E 021°26'0 0.0
2018-Jun-10 07:24N 61°08' E 021°26'0 0.0
2018-Jun-10 07:00N 61°08' E 021°26'0 0.0
2018-Jun-10 06:27N 61°08' E 021°26'0 0.0
2018-Jun-10 06:00N 61°08' E 021°26'0 0.0
2018-Jun-10 05:29N 61°08' E 021°26'0 0.0
2018-Jun-10 05:00N 61°08' E 021°26'0 0.0
2018-Jun-10 04:28N 61°08' E 021°26'0 0.0
2018-Jun-10 03:59N 61°08' E 021°26'0 0.0
2018-Jun-10 03:28N 61°08' E 021°26'0 0.0
2018-Jun-10 02:57N 61°08' E 021°26'0 0.0
2018-Jun-10 02:29N 61°08' E 021°26'0 0.0
2018-Jun-10 01:52N 61°08' E 021°26'  

Dump ship's entire track history